Time;durP1;ratioP1;P1;durP2;ratioP2;P2;SDS_P1;SDS_P2;PMS_P1;PMS_P2;Temp;Humidity;BMP_temperature;BMP_pressure;BME280_temperature;BME280_humidity;BME280_pressure;Samples;Min_cycle;Max_cycle;Signal;HPM_P1;HPM_P2
2023/08/01 00:01:31;;;;;;;16.75;4.75;;;16.80;99.90;;;;;;5089247;28;20544;-77
2023/08/01 00:03:56;;;;;;;17.08;4.70;;;16.80;99.90;;;;;;5066290;28;20040;-77
2023/08/01 00:06:24;;;;;;;12.48;4.40;;;16.80;99.90;;;;;;5064307;28;20052;-78
2023/08/01 00:08:50;;;;;;;15.45;4.53;;;16.80;99.90;;;;;;5049737;28;20028;-77
2023/08/01 00:11:16;;;;;;;13.48;4.35;;;16.70;99.90;;;;;;5099670;28;20016;-77
2023/08/01 00:13:43;;;;;;;14.43;4.25;;;16.80;99.90;;;;;;5069673;28;20030;-78
2023/08/01 00:16:09;;;;;;;14.65;4.72;;;16.80;99.90;;;;;;5120134;28;20088;-78
2023/08/01 00:18:35;;;;;;;16.27;4.72;;;16.80;99.90;;;;;;5051610;28;20083;-77
2023/08/01 00:21:01;;;;;;;14.80;4.70;;;16.80;99.90;;;;;;5088124;28;20026;-77
2023/08/01 00:23:27;;;;;;;15.70;4.70;;;16.80;99.90;;;;;;5039894;28;20072;-77
2023/08/01 00:25:53;;;;;;;14.60;4.20;;;16.70;99.90;;;;;;5069161;28;20039;-78
2023/08/01 00:28:19;;;;;;;17.15;4.70;;;16.80;99.90;;;;;;5085790;28;20027;-77
2023/08/01 00:30:44;;;;;;;12.82;4.43;;;16.80;99.90;;;;;;5084404;28;20281;-78
2023/08/01 00:33:10;;;;;;;17.45;4.60;;;16.70;99.90;;;;;;5085716;28;20212;-77
2023/08/01 00:35:36;;;;;;;13.43;4.88;;;16.70;99.90;;;;;;5072571;28;20269;-78
2023/08/01 00:38:02;;;;;;;18.17;4.93;;;16.70;99.90;;;;;;5068491;28;20263;-78
2023/08/01 00:40:31;;;;;;;13.88;4.93;;;16.70;99.90;;;;;;5052327;28;20023;-77
2023/08/01 00:42:57;;;;;;;13.63;4.70;;;16.70;99.90;;;;;;5068919;28;20024;-77
2023/08/01 00:45:26;;;;;;;15.00;5.10;;;16.70;99.90;;;;;;5068583;28;20022;-77
2023/08/01 00:47:53;;;;;;;13.60;4.47;;;16.70;99.90;;;;;;5085646;28;20253;-77
2023/08/01 00:50:22;;;;;;;15.50;4.85;;;16.60;99.90;;;;;;5119276;28;20036;-77
2023/08/01 00:52:50;;;;;;;19.65;5.10;;;16.70;99.90;;;;;;5119318;28;20038;-77
2023/08/01 00:55:16;;;;;;;13.23;4.55;;;16.70;99.90;;;;;;5068215;28;20049;-77
2023/08/01 00:57:42;;;;;;;13.13;4.88;;;16.60;99.90;;;;;;5062278;28;20052;-77
2023/08/01 01:00:08;;;;;;;10.90;4.35;;;16.60;99.90;;;;;;5068325;28;20020;-78
2023/08/01 01:02:35;;;;;;;17.05;4.57;;;16.60;99.90;;;;;;5068438;28;20024;-77
2023/08/01 01:05:02;;;;;;;10.65;4.07;;;16.60;99.90;;;;;;5102060;28;20059;-77
2023/08/01 01:07:29;;;;;;;12.23;4.00;;;16.50;99.90;;;;;;5101852;28;20087;-77
2023/08/01 01:09:55;;;;;;;11.55;4.43;;;16.60;99.90;;;;;;5084871;28;20020;-77
2023/08/01 01:12:21;;;;;;;12.55;4.13;;;16.50;99.90;;;;;;5079263;28;20361;-77
2023/08/01 01:14:46;;;;;;;11.07;4.20;;;16.50;99.90;;;;;;5066704;28;20019;-77
2023/08/01 01:17:12;;;;;;;13.38;4.30;;;16.50;99.90;;;;;;5070754;28;20021;-78
2023/08/01 01:19:38;;;;;;;10.90;4.07;;;16.50;99.90;;;;;;5066452;28;20021;-77
2023/08/01 01:22:06;;;;;;;11.88;4.00;;;16.40;99.90;;;;;;5068098;28;20059;-77
2023/08/01 01:24:33;;;;;;;11.18;4.28;;;16.40;99.90;;;;;;5112803;28;20023;-77
2023/08/01 01:26:59;;;;;;;10.98;4.15;;;16.40;99.90;;;;;;5066538;28;20020;-77
2023/08/01 01:29:26;;;;;;;12.82;4.15;;;16.30;99.90;;;;;;5082782;28;20016;-77
2023/08/01 01:31:53;;;;;;;12.35;4.15;;;16.30;99.90;;;;;;5083195;28;20339;-77
2023/08/01 01:34:19;;;;;;;12.02;4.20;;;16.30;99.90;;;;;;5048140;28;20048;-77
2023/08/01 01:36:44;;;;;;;13.07;4.43;;;16.30;99.90;;;;;;5047854;28;20020;-77
2023/08/01 01:39:10;;;;;;;11.68;3.90;;;16.20;99.90;;;;;;5058345;28;20233;-77
2023/08/01 01:41:36;;;;;;;13.70;4.65;;;16.20;99.90;;;;;;5067141;28;20024;-77
2023/08/01 01:44:02;;;;;;;11.88;4.03;;;16.10;99.90;;;;;;5067104;28;20027;-77
2023/08/01 01:46:27;;;;;;;10.05;3.55;;;16.10;99.90;;;;;;5083036;28;20171;-77
2023/08/01 01:48:53;;;;;;;12.77;4.35;;;16.10;99.90;;;;;;5068079;28;20016;-77
2023/08/01 01:51:20;;;;;;;13.18;3.83;;;16.10;99.90;;;;;;5066955;28;20293;-77
2023/08/01 01:53:46;;;;;;;11.45;4.00;;;16.10;99.90;;;;;;5108148;28;20032;-77
2023/08/01 01:56:12;;;;;;;11.55;4.32;;;16.00;99.90;;;;;;5065668;28;20107;-77
2023/08/01 01:58:37;;;;;;;11.52;4.30;;;16.00;99.90;;;;;;5090914;28;20036;-77
2023/08/01 02:01:03;;;;;;;12.05;4.03;;;16.00;99.90;;;;;;5082532;28;20020;-78
2023/08/01 02:03:29;;;;;;;12.07;4.20;;;15.90;99.90;;;;;;5076517;28;20035;-77
2023/08/01 02:05:55;;;;;;;12.95;4.18;;;15.90;99.90;;;;;;5082782;28;20023;-77
2023/08/01 02:08:20;;;;;;;11.48;3.70;;;15.90;99.90;;;;;;5067428;28;20024;-77
2023/08/01 02:10:47;;;;;;;12.85;3.78;;;16.30;99.90;;;;;;5081706;28;20024;-77
2023/08/01 02:13:13;;;;;;;12.55;3.70;;;15.90;99.90;;;;;;5083574;28;20027;-77
2023/08/01 02:15:38;;;;;;;10.88;3.75;;;15.90;99.90;;;;;;5049756;28;20030;-77
2023/08/01 02:18:04;;;;;;;13.27;3.85;;;15.80;99.90;;;;;;5082353;28;20059;-77
2023/08/01 02:20:30;;;;;;;10.18;3.78;;;15.80;99.90;;;;;;5060784;28;20083;-78
2023/08/01 02:22:56;;;;;;;13.30;4.30;;;15.80;99.90;;;;;;5080012;28;20153;-77
2023/08/01 02:25:21;;;;;;;12.88;3.65;;;15.80;99.90;;;;;;5102839;28;20037;-77
2023/08/01 02:27:47;;;;;;;14.15;4.15;;;15.80;99.90;;;;;;5069438;28;20083;-77
2023/08/01 02:30:13;;;;;;;12.00;4.25;;;15.80;99.90;;;;;;5057489;28;20031;-77
2023/08/01 02:32:38;;;;;;;12.57;3.70;;;15.70;99.90;;;;;;5063810;28;20201;-77
2023/08/01 02:35:05;;;;;;;11.20;3.88;;;15.80;99.90;;;;;;5047225;28;20021;-77
2023/08/01 02:37:30;;;;;;;10.45;3.67;;;15.70;99.90;;;;;;5065442;28;20044;-77
2023/08/01 02:39:56;;;;;;;12.88;4.00;;;15.70;99.90;;;;;;5060630;28;20257;-77
2023/08/01 02:42:22;;;;;;;10.05;3.72;;;15.70;99.90;;;;;;5071174;28;20069;-77
2023/08/01 02:44:47;;;;;;;10.27;3.63;;;15.70;99.90;;;;;;5071335;28;20036;-77
2023/08/01 02:47:13;;;;;;;12.20;3.70;;;15.70;99.90;;;;;;5104893;28;20016;-77
2023/08/01 02:49:39;;;;;;;12.18;4.07;;;15.60;99.90;;;;;;5087734;28;20281;-77
2023/08/01 02:52:05;;;;;;;11.05;3.70;;;15.60;99.90;;;;;;5058673;28;20020;-77
2023/08/01 02:54:30;;;;;;;14.23;3.80;;;15.60;99.90;;;;;;5058310;28;20011;-77
2023/08/01 02:56:56;;;;;;;12.20;4.00;;;15.60;99.90;;;;;;5087364;28;20269;-77
2023/08/01 02:59:22;;;;;;;14.55;4.15;;;15.60;99.90;;;;;;5087287;28;20016;-77
2023/08/01 03:01:47;;;;;;;10.98;4.20;;;15.60;99.90;;;;;;5070582;28;20302;-77
2023/08/01 03:04:14;;;;;;;11.27;3.92;;;15.60;99.90;;;;;;5070513;28;20083;-77
2023/08/01 03:06:40;;;;;;;12.50;3.72;;;15.60;99.90;;;;;;5070860;28;20119;-77
2023/08/01 03:09:07;;;;;;;10.88;4.15;;;15.60;99.90;;;;;;5086934;28;20107;-77
2023/08/01 03:11:35;;;;;;;10.68;3.90;;;15.60;99.90;;;;;;5070256;28;20031;-77
2023/08/01 03:14:01;;;;;;;13.10;4.40;;;15.50;99.90;;;;;;5070203;28;20027;-77
2023/08/01 03:16:27;;;;;;;12.88;4.07;;;15.60;99.90;;;;;;5096469;28;20100;-77
2023/08/01 03:18:52;;;;;;;12.43;4.22;;;15.60;99.90;;;;;;5086894;28;20031;-77
2023/08/01 03:21:18;;;;;;;14.45;4.70;;;15.60;99.90;;;;;;5087031;28;20020;-77
2023/08/01 03:23:44;;;;;;;11.18;4.03;;;15.60;99.90;;;;;;5070058;28;20111;-77
2023/08/01 03:26:10;;;;;;;14.63;4.65;;;15.60;99.90;;;;;;5053486;28;20024;-77
2023/08/01 03:28:35;;;;;;;16.90;5.28;;;15.60;99.90;;;;;;5086020;28;20024;-78
2023/08/01 03:31:02;;;;;;;14.57;5.07;;;15.60;99.90;;;;;;5053788;28;20016;-79
2023/08/01 03:33:27;;;;;;;14.05;5.25;;;15.60;99.90;;;;;;5070003;28;20035;-80
2023/08/01 03:35:53;;;;;;;16.73;5.30;;;15.60;99.90;;;;;;5070290;28;20022;-80
2023/08/01 03:38:19;;;;;;;12.30;5.25;;;15.60;99.90;;;;;;5070232;28;20301;-80
2023/08/01 03:40:44;;;;;;;12.27;4.60;;;15.70;99.90;;;;;;5053379;28;20031;-79
2023/08/01 03:43:10;;;;;;;12.88;4.93;;;15.70;99.90;;;;;;5086752;28;20101;-79
2023/08/01 03:45:36;;;;;;;16.50;5.03;;;15.70;99.90;;;;;;5087276;28;20020;-80
2023/08/01 03:48:02;;;;;;;16.13;5.00;;;15.70;99.90;;;;;;5121080;28;20074;-79
2023/08/01 03:50:27;;;;;;;15.43;5.28;;;15.70;99.90;;;;;;5069527;28;20590;-80
2023/08/01 03:52:53;;;;;;;16.52;5.10;;;15.80;99.90;;;;;;5086295;28;20084;-80
2023/08/01 03:55:19;;;;;;;18.40;5.65;;;15.70;99.90;;;;;;5069474;28;20125;-79
2023/08/01 03:57:44;;;;;;;14.80;5.05;;;15.80;99.90;;;;;;5086224;28;20236;-80
2023/08/01 04:00:13;;;;;;;16.77;5.63;;;15.80;99.90;;;;;;5053145;28;20024;-79
2023/08/01 04:02:41;;;;;;;14.20;5.50;;;15.80;99.90;;;;;;5095306;28;20032;-79
2023/08/01 04:05:08;;;;;;;14.30;5.28;;;15.80;99.90;;;;;;5069938;28;20055;-79
2023/08/01 04:07:35;;;;;;;15.55;5.15;;;15.80;99.90;;;;;;5111718;28;20065;-79
2023/08/01 04:10:01;;;;;;;16.50;4.90;;;15.80;99.90;;;;;;5069940;28;20083;-79
2023/08/01 04:12:27;;;;;;;15.10;4.68;;;15.80;99.90;;;;;;5052785;28;20171;-79
2023/08/01 04:14:52;;;;;;;11.48;4.88;;;15.80;99.90;;;;;;5069253;28;20157;-79
2023/08/01 04:17:18;;;;;;;16.35;4.80;;;15.80;99.90;;;;;;5068225;28;20035;-79
2023/08/01 04:19:44;;;;;;;13.60;5.00;;;15.70;99.90;;;;;;5052676;28;20020;-79
2023/08/01 04:22:10;;;;;;;12.82;4.63;;;15.70;99.90;;;;;;5085568;28;20059;-78
2023/08/01 04:24:35;;;;;;;12.68;4.72;;;15.70;99.90;;;;;;5093967;28;20307;-79
2023/08/01 04:27:01;;;;;;;12.85;4.70;;;15.70;99.90;;;;;;5084029;28;20043;-80
2023/08/01 04:29:27;;;;;;;12.13;4.40;;;15.70;99.90;;;;;;5059187;28;20024;-80
2023/08/01 04:31:53;;;;;;;13.45;4.57;;;15.70;99.90;;;;;;5085025;28;20039;-79
2023/08/01 04:34:18;;;;;;;12.38;4.13;;;15.70;99.90;;;;;;5066567;28;20020;-79
2023/08/01 04:36:44;;;;;;;10.93;3.70;;;15.70;99.90;;;;;;5063386;28;20016;-79
2023/08/01 04:39:10;;;;;;;13.43;3.75;;;15.70;99.90;;;;;;5087356;28;20021;-78
2023/08/01 04:41:36;;;;;;;13.45;3.47;;;15.70;99.90;;;;;;5067867;28;20143;-79
2023/08/01 04:44:01;;;;;;;11.43;3.50;;;15.60;99.90;;;;;;5068707;28;20103;-79
2023/08/01 04:46:27;;;;;;;12.05;3.17;;;15.70;99.90;;;;;;5056666;28;20065;-79
2023/08/01 04:48:53;;;;;;;10.10;3.10;;;15.70;99.90;;;;;;5085390;28;20250;-78
2023/08/01 04:51:18;;;;;;;11.38;3.35;;;15.60;99.90;;;;;;5051719;28;20031;-78
2023/08/01 04:53:44;;;;;;;12.27;3.33;;;15.70;99.90;;;;;;5084496;28;20085;-78
2023/08/01 04:56:10;;;;;;;11.20;3.33;;;15.70;99.90;;;;;;5065260;28;20054;-79
2023/08/01 04:58:35;;;;;;;11.45;3.10;;;15.70;99.90;;;;;;5066717;28;20118;-79
2023/08/01 05:01:01;;;;;;;11.82;2.90;;;15.70;99.90;;;;;;5062925;28;20016;-79
2023/08/01 05:03:27;;;;;;;11.18;3.30;;;15.70;99.90;;;;;;5032701;28;20032;-79
2023/08/01 05:05:53;;;;;;;15.40;3.30;;;15.70;99.90;;;;;;5064256;28;20023;-78
2023/08/01 05:08:18;;;;;;;13.45;3.20;;;15.70;99.90;;;;;;5061774;28;20110;-78
2023/08/01 05:10:44;;;;;;;12.18;2.90;;;15.80;99.90;;;;;;5066314;28;20114;-78
2023/08/01 05:13:10;;;;;;;13.18;3.20;;;15.80;99.90;;;;;;5035195;28;20192;-79
2023/08/01 05:15:35;;;;;;;11.00;2.90;;;15.90;99.90;;;;;;5080517;28;20019;-79
2023/08/01 05:18:01;;;;;;;12.38;3.05;;;15.90;99.90;;;;;;5066428;28;20229;-78
2023/08/01 05:20:30;;;;;;;12.05;3.53;;;16.00;99.90;;;;;;5064676;28;20020;-78
2023/08/01 05:22:59;;;;;;;8.60;2.83;;;16.10;99.90;;;;;;5067986;28;20093;-78
2023/08/01 05:25:25;;;;;;;12.98;3.03;;;16.30;99.90;;;;;;5084898;28;20019;-78
2023/08/01 05:27:50;;;;;;;12.45;2.78;;;16.40;99.90;;;;;;5066557;28;20185;-77
2023/08/01 05:30:16;;;;;;;10.00;2.70;;;16.60;99.90;;;;;;5066445;28;20017;-79
2023/08/01 05:32:43;;;;;;;12.00;3.05;;;16.70;99.90;;;;;;5067935;28;20036;-78
2023/08/01 05:35:09;;;;;;;12.73;2.67;;;16.70;99.90;;;;;;5062216;28;20024;-79
2023/08/01 05:37:35;;;;;;;12.38;2.50;;;16.60;99.90;;;;;;5066399;28;20125;-79
2023/08/01 05:40:03;;;;;;;9.57;2.50;;;16.60;99.90;;;;;;5081249;28;20032;-78
2023/08/01 05:42:29;;;;;;;9.43;2.30;;;16.50;99.90;;;;;;5064191;28;20097;-78
2023/08/01 05:44:55;;;;;;;9.70;2.25;;;16.40;99.90;;;;;;5068083;28;20028;-78
2023/08/01 05:47:22;;;;;;;7.15;2.13;;;16.30;99.90;;;;;;5084721;28;20092;-78
2023/08/01 05:49:48;;;;;;;9.32;2.20;;;16.20;99.90;;;;;;5084698;28;20091;-78
2023/08/01 05:52:14;;;;;;;8.40;2.47;;;16.10;99.90;;;;;;5051256;28;20027;-77
2023/08/01 05:54:40;;;;;;;7.93;2.40;;;16.10;99.90;;;;;;5067044;28;20073;-77
2023/08/01 05:57:06;;;;;;;12.00;2.40;;;16.00;99.90;;;;;;5101582;28;20055;-77
2023/08/01 05:59:31;;;;;;;7.60;2.17;;;16.00;99.90;;;;;;5051472;28;20106;-78
2023/08/01 06:01:57;;;;;;;9.55;2.50;;;16.00;99.90;;;;;;5068085;28;20032;-78
2023/08/01 06:04:23;;;;;;;7.85;2.38;;;16.00;99.90;;;;;;5066166;28;20020;-78
2023/08/01 06:06:49;;;;;;;10.38;2.70;;;16.00;99.90;;;;;;5118493;28;20024;-78
2023/08/01 06:09:15;;;;;;;8.35;2.72;;;16.00;99.90;;;;;;5099211;28;20036;-78
2023/08/01 06:11:41;;;;;;;9.43;2.53;;;16.00;99.90;;;;;;5084496;28;20200;-78
2023/08/01 06:14:07;;;;;;;10.30;2.50;;;16.10;99.90;;;;;;5050090;28;20027;-78
2023/08/01 06:16:32;;;;;;;9.07;2.65;;;16.10;99.90;;;;;;5086434;28;20192;-78
2023/08/01 06:18:58;;;;;;;8.55;2.63;;;16.10;99.90;;;;;;5088847;28;20031;-78
2023/08/01 06:21:24;;;;;;;8.00;2.38;;;16.20;99.90;;;;;;5088946;28;20024;-78
2023/08/01 06:23:50;;;;;;;7.22;2.47;;;16.20;99.90;;;;;;5088847;28;20074;-80
2023/08/01 06:26:16;;;;;;;8.32;2.10;;;16.20;99.90;;;;;;5051931;28;20293;-78
2023/08/01 06:28:42;;;;;;;8.95;2.35;;;16.20;99.90;;;;;;5071922;28;20032;-78
2023/08/01 06:31:07;;;;;;;6.47;2.00;;;16.20;99.90;;;;;;5071551;28;20050;-78
2023/08/01 06:33:33;;;;;;;8.02;2.47;;;16.20;99.90;;;;;;5071747;28;20036;-78
2023/08/01 06:35:59;;;;;;;9.48;2.72;;;16.20;99.90;;;;;;5064026;28;20024;-78
2023/08/01 06:38:25;;;;;;;7.28;2.20;;;16.20;99.90;;;;;;5055105;28;20016;-78
2023/08/01 06:40:50;;;;;;;6.88;2.35;;;16.20;99.90;;;;;;5088459;28;20028;-78
2023/08/01 06:43:16;;;;;;;7.72;2.33;;;16.30;99.90;;;;;;5054959;28;20020;-78
2023/08/01 06:45:42;;;;;;;8.18;2.60;;;16.30;99.90;;;;;;5068667;28;20019;-78
2023/08/01 06:48:08;;;;;;;7.22;2.30;;;16.30;99.90;;;;;;5105210;28;20028;-77
2023/08/01 06:50:34;;;;;;;8.15;2.63;;;16.30;99.90;;;;;;5104864;28;20040;-78
2023/08/01 06:53:00;;;;;;;7.97;2.28;;;16.30;99.90;;;;;;5087963;28;20104;-78
2023/08/01 06:55:26;;;;;;;7.57;2.15;;;16.30;99.90;;;;;;5057491;28;20024;-78
2023/08/01 06:57:52;;;;;;;6.75;1.77;;;16.30;99.90;;;;;;5070250;28;20039;-78
2023/08/01 07:00:18;;;;;;;9.13;2.20;;;16.20;99.90;;;;;;5054474;28;20054;-78
2023/08/01 07:02:44;;;;;;;5.90;2.17;;;16.30;99.90;;;;;;5087656;28;20258;-78
2023/08/01 07:05:09;;;;;;;5.53;2.00;;;16.40;99.90;;;;;;5054419;28;20322;-77
2023/08/01 07:07:35;;;;;;;6.90;2.35;;;16.40;99.90;;;;;;5052834;28;20104;-78
2023/08/01 07:10:01;;;;;;;7.80;2.25;;;16.50;99.90;;;;;;5087603;28;20442;-77
2023/08/01 07:12:27;;;;;;;7.47;2.28;;;16.50;99.90;;;;;;5088892;28;20028;-77
2023/08/01 07:14:53;;;;;;;6.88;2.08;;;16.60;99.90;;;;;;5087573;28;20039;-77
2023/08/01 07:17:18;;;;;;;6.57;1.90;;;16.60;99.90;;;;;;5104131;28;20089;-77
2023/08/01 07:19:44;;;;;;;8.60;2.10;;;16.60;99.90;;;;;;5087456;28;20020;-77
2023/08/01 07:22:10;;;;;;;6.78;1.90;;;16.60;99.90;;;;;;5085243;28;20051;-76
2023/08/01 07:24:35;;;;;;;6.55;1.98;;;16.70;99.90;;;;;;5070573;28;20036;-77
2023/08/01 07:27:01;;;;;;;8.40;1.95;;;16.70;99.90;;;;;;5083746;28;20303;-77
2023/08/01 07:29:27;;;;;;;7.38;1.77;;;16.70;99.90;;;;;;5050605;28;20056;-77
2023/08/01 07:31:53;;;;;;;6.32;1.75;;;16.70;99.90;;;;;;5054956;28;20074;-78
2023/08/01 07:34:18;;;;;;;7.25;1.95;;;16.80;99.90;;;;;;5053849;28;20185;-78
2023/08/01 07:36:48;;;;;;;9.02;1.80;;;16.90;99.90;;;;;;5039251;28;20035;-77
2023/08/01 07:39:14;;;;;;;8.88;2.15;;;17.00;99.90;;;;;;5050300;28;20248;-77
2023/08/01 07:41:40;;;;;;;9.27;1.80;;;17.00;99.90;;;;;;5066874;28;20020;-77
2023/08/01 07:44:06;;;;;;;8.77;1.70;;;17.20;99.90;;;;;;5068708;28;20016;-78
2023/08/01 07:46:32;;;;;;;9.15;1.95;;;17.20;99.90;;;;;;5049562;28;20016;-78
2023/08/01 07:48:59;;;;;;;7.82;1.85;;;17.30;99.90;;;;;;5053764;28;20043;-78
2023/08/01 07:51:25;;;;;;;8.82;1.85;;;17.20;99.90;;;;;;5103564;28;20024;-78
2023/08/01 07:53:53;;;;;;;9.00;2.03;;;17.20;99.90;;;;;;5069525;28;20028;-78
2023/08/01 07:56:20;;;;;;;7.47;1.90;;;17.10;99.90;;;;;;5084685;28;20031;-78
2023/08/01 07:58:45;;;;;;;9.75;2.10;;;17.00;99.90;;;;;;5086702;28;20024;-77
2023/08/01 08:01:11;;;;;;;7.68;1.90;;;17.00;99.90;;;;;;5086624;28;20020;-77
2023/08/01 08:03:37;;;;;;;8.32;2.05;;;16.90;99.90;;;;;;5086383;28;20096;-77
2023/08/01 08:06:03;;;;;;;6.32;1.63;;;16.80;99.90;;;;;;5069918;28;20326;-77
2023/08/01 08:08:30;;;;;;;9.40;2.20;;;16.80;99.90;;;;;;5116829;28;20178;-77
2023/08/01 08:10:56;;;;;;;6.75;1.60;;;16.80;99.90;;;;;;5069656;28;20273;-77
2023/08/01 08:13:21;;;;;;;6.55;1.80;;;16.80;99.90;;;;;;5069256;28;20024;-77
2023/08/01 08:15:47;;;;;;;6.75;1.80;;;16.80;99.90;;;;;;5069611;28;20043;-77
2023/08/01 08:18:13;;;;;;;7.68;1.73;;;16.90;99.90;;;;;;5084417;28;20012;-77
2023/08/01 08:20:45;;;;;;;6.35;1.52;;;17.00;99.90;;;;;;5086221;28;20253;-77
2023/08/01 08:23:13;;;;;;;6.20;1.90;;;17.20;99.90;;;;;;5069293;28;20250;-77
2023/08/01 08:25:40;;;;;;;6.47;1.70;;;17.40;99.90;;;;;;5120040;28;20087;-77
2023/08/01 08:28:06;;;;;;;8.88;2.00;;;17.50;99.90;;;;;;5084341;28;20209;-77
2023/08/01 08:30:31;;;;;;;6.25;1.70;;;17.50;99.90;;;;;;5069366;28;20039;-77
2023/08/01 08:33:04;;;;;;;9.80;2.30;;;17.50;99.90;;;;;;5117588;28;20024;-77
2023/08/01 08:35:30;;;;;;;8.85;1.98;;;17.70;99.90;;;;;;5069174;28;20115;-77
2023/08/01 08:37:58;;;;;;;7.60;1.67;;;17.70;99.90;;;;;;5084915;28;20020;-76
2023/08/01 08:40:24;;;;;;;6.43;1.45;;;17.60;99.90;;;;;;5101957;28;20337;-77
2023/08/01 08:42:53;;;;;;;5.57;1.70;;;17.40;99.90;;;;;;5085003;28;20145;-76
2023/08/01 08:45:20;;;;;;;7.30;1.75;;;17.30;99.90;;;;;;5085898;28;20151;-76
2023/08/01 08:47:53;;;;;;;8.15;1.70;;;17.20;99.90;;;;;;5119648;28;20028;-76
2023/08/01 08:50:19;;;;;;;;;;;17.10;99.90;;;;;;5069171;28;20301;-76
2023/08/01 08:52:45;;;;;;;6.30;1.50;;;16.90;99.90;;;;;;5102547;28;19919;-77
2023/08/01 08:55:11;;;;;;;7.03;1.88;;;16.80;99.90;;;;;;5109075;28;20042;-77
2023/08/01 08:57:39;;;;;;;7.80;1.88;;;16.80;99.90;;;;;;5068935;28;20031;-77
2023/08/01 09:00:06;;;;;;;6.68;1.85;;;16.70;99.90;;;;;;5051139;28;20083;-77
2023/08/01 09:02:33;;;;;;;6.93;1.90;;;16.60;99.90;;;;;;5081783;28;20103;-78
2023/08/01 09:04:59;;;;;;;8.52;1.98;;;16.60;99.90;;;;;;5068948;28;20032;-78
2023/08/01 09:07:29;;;;;;;8.75;1.85;;;16.60;99.90;;;;;;5119384;28;20024;-77
2023/08/01 09:09:55;;;;;;;7.80;1.95;;;16.60;99.90;;;;;;5119310;28;20028;-78
2023/08/01 09:12:21;;;;;;;5.43;1.60;;;16.70;99.90;;;;;;5085498;28;20047;-77
2023/08/01 09:14:50;;;;;;;7.63;1.83;;;16.70;99.90;;;;;;5092217;28;20253;-77
2023/08/01 09:17:18;;;;;;;9.35;2.00;;;16.80;99.90;;;;;;5118966;28;20290;-77
2023/08/01 09:19:44;;;;;;;7.60;1.70;;;16.90;99.90;;;;;;5085104;28;20020;-77
2023/08/01 09:22:11;;;;;;;8.02;1.98;;;17.20;99.90;;;;;;5068177;28;20137;-77
2023/08/01 09:24:37;;;;;;;7.15;2.00;;;17.60;99.90;;;;;;5067205;28;20095;-77
2023/08/01 09:27:08;;;;;;;6.47;1.85;;;17.70;99.90;;;;;;5068247;28;20051;-77
2023/08/01 09:29:34;;;;;;;6.60;1.70;;;17.70;99.90;;;;;;5118851;28;20035;-77
2023/08/01 09:31:59;;;;;;;7.82;1.80;;;17.60;99.90;;;;;;5084837;28;20093;-77
2023/08/01 09:34:26;;;;;;;7.40;1.73;;;17.60;99.90;;;;;;5066688;28;20023;-77
2023/08/01 09:36:59;;;;;;;6.28;1.90;;;17.60;99.90;;;;;;5084306;28;20020;-77
2023/08/01 09:39:25;;;;;;;6.68;1.80;;;17.60;99.90;;;;;;5084841;28;20188;-77
2023/08/01 09:41:58;;;;;;;8.65;2.05;;;17.60;99.90;;;;;;5102876;28;20094;-77
2023/08/01 09:44:26;;;;;;;7.32;1.73;;;17.50;99.90;;;;;;5099999;28;20031;-77
2023/08/01 09:47:03;;;;;;;8.13;2.08;;;17.40;99.90;;;;;;5084252;28;20020;-77
2023/08/01 09:49:30;;;;;;;6.80;1.70;;;17.30;99.90;;;;;;5068118;28;20083;-77
2023/08/01 09:51:56;;;;;;;6.10;1.70;;;17.30;99.90;;;;;;5067787;28;20032;-77
2023/08/01 09:54:22;;;;;;;5.80;1.50;;;17.20;99.90;;;;;;5099785;28;20087;-78
2023/08/01 09:56:50;;;;;;;7.05;1.73;;;17.10;99.90;;;;;;5051253;28;20154;-77
2023/08/01 09:59:23;;;;;;;5.78;1.73;;;17.00;99.90;;;;;;5101103;28;20088;-77
2023/08/01 10:01:52;;;;;;;9.45;1.90;;;17.00;99.90;;;;;;5067792;28;20020;-78
2023/08/01 10:04:24;;;;;;;7.80;1.90;;;17.00;99.90;;;;;;5118229;28;20024;-78
2023/08/01 10:06:57;;;;;;;8.15;1.90;;;17.00;99.90;;;;;;5110488;28;20084;-77
2023/08/01 10:09:23;;;;;;;6.60;1.98;;;17.30;99.90;;;;;;5067517;28;20028;-77
2023/08/01 10:11:51;;;;;;;7.25;1.90;;;17.60;99.90;;;;;;5084159;28;20032;-77
2023/08/01 10:14:19;;;;;;;5.13;1.73;;;18.10;99.90;;;;;;5084382;28;20167;-77
2023/08/01 10:16:46;;;;;;;8.77;2.00;;;18.40;99.90;;;;;;5082760;28;20027;-77
2023/08/01 10:19:13;;;;;;;7.00;2.10;;;18.80;99.90;;;;;;5084352;28;20035;-77
2023/08/01 10:21:41;;;;;;;7.20;1.80;;;18.90;99.90;;;;;;5084479;28;20108;-76
2023/08/01 10:24:08;;;;;;;7.38;1.75;;;18.90;99.90;;;;;;5080767;28;20144;-76
2023/08/01 10:26:34;;;;;;;7.88;1.80;;;18.80;99.90;;;;;;5053139;28;20021;-76
2023/08/01 10:29:02;;;;;;;7.03;1.80;;;18.90;99.90;;;;;;5047321;28;20020;-76
2023/08/01 10:31:28;;;;;;;7.10;1.83;;;19.60;99.90;;;;;;5081070;28;20035;-77
2023/08/01 10:34:07;;;;;;;6.05;1.70;;;18.90;99.90;;;;;;5047651;28;20032;-76
2023/08/01 10:36:34;;;;;;;6.30;2.08;;;18.80;99.90;;;;;;5080878;28;20156;-76
2023/08/01 10:39:02;;;;;;;6.63;2.05;;;18.60;99.90;;;;;;5078701;28;20077;-76
2023/08/01 10:41:30;;;;;;;8.50;1.80;;;18.50;99.90;;;;;;5080985;28;20033;-77
2023/08/01 10:44:13;;;;;;;6.72;1.83;;;18.30;99.90;;;;;;5080661;28;20248;-77
2023/08/01 10:46:49;;;;;;;;;;;18.20;99.90;;;;;;5064493;28;20398;-76
2023/08/01 10:49:16;;;;;;;7.40;1.77;;;18.00;99.90;;;;;;5079798;28;19944;-76
2023/08/01 10:51:43;;;;;;;5.82;1.63;;;18.10;99.90;;;;;;5080709;28;20173;-76
2023/08/01 10:54:22;;;;;;;7.97;1.80;;;18.40;99.90;;;;;;5063870;28;20108;-76
2023/08/01 10:56:51;;;;;;;9.68;2.42;;;18.60;99.90;;;;;;5063975;28;20273;-77
2023/08/01 10:59:17;;;;;;;9.63;2.42;;;18.70;99.90;;;;;;5080996;28;20095;-76
2023/08/01 11:01:54;;;;;;;8.38;2.00;;;19.00;99.90;;;;;;5064141;28;20020;-76
2023/08/01 11:04:24;;;;;;;9.15;2.38;;;18.70;99.90;;;;;;5084397;28;20024;-76
2023/08/01 11:06:53;;;;;;;10.30;2.20;;;19.50;99.90;;;;;;5084676;28;20021;-77
2023/08/01 11:09:20;;;;;;;8.60;1.98;;;19.40;99.90;;;;;;5083763;28;20240;-76
2023/08/01 11:11:50;;;;;;;10.38;2.08;;;19.10;99.90;;;;;;5066810;28;20083;-76
2023/08/01 11:14:16;;;;;;;7.32;1.75;;;18.80;99.90;;;;;;5084105;28;20037;-77
2023/08/01 11:16:44;;;;;;;8.05;1.90;;;18.50;99.90;;;;;;5067454;28;20322;-77
2023/08/01 11:19:29;;;;;;;8.05;2.40;;;18.40;99.90;;;;;;5084015;28;20039;-76
2023/08/01 11:21:56;;;;;;;7.53;1.70;;;18.50;99.90;;;;;;5055661;28;20089;-76
2023/08/01 11:24:23;;;;;;;7.82;1.95;;;18.60;99.90;;;;;;5083747;28;20146;-76
2023/08/01 11:26:50;;;;;;;7.20;1.90;;;18.70;99.90;;;;;;5084042;28;20274;-76
2023/08/01 11:29:17;;;;;;;6.55;1.88;;;18.80;99.90;;;;;;5084001;28;20025;-77
2023/08/01 11:31:59;;;;;;;5.55;1.60;;;19.00;99.90;;;;;;5083025;28;20024;-76
2023/08/01 11:34:26;;;;;;;6.78;1.70;;;19.30;99.90;;;;;;5083952;28;20028;-76
2023/08/01 11:36:53;;;;;;;8.63;1.65;;;19.50;99.90;;;;;;5067282;28;20020;-79
2023/08/01 11:39:19;;;;;;;4.32;1.40;;;19.50;99.90;;;;;;5067306;28;20083;-76
2023/08/01 11:41:45;;;;;;;7.30;1.50;;;19.40;99.90;;;;;;5066223;28;20168;-76
2023/08/01 11:44:11;;;;;;;4.93;1.40;;;19.30;99.90;;;;;;5066795;28;20205;-76
2023/08/01 11:46:38;;;;;;;4.43;1.73;;;19.30;99.90;;;;;;5083773;28;20027;-76
2023/08/01 11:49:07;;;;;;;9.35;2.33;;;19.30;99.90;;;;;;5083708;28;20320;-77
2023/08/01 11:51:41;;;;;;;8.52;1.70;;;19.30;99.90;;;;;;5066880;28;20016;-77
2023/08/01 11:54:07;;;;;;;7.80;1.75;;;19.40;99.90;;;;;;5079511;28;20020;-76
2023/08/01 11:56:33;;;;;;;7.20;1.70;;;19.50;99.90;;;;;;5078757;28;20017;-77
2023/08/01 11:58:59;;;;;;;7.40;1.77;;;19.50;99.90;;;;;;5083459;28;20033;-76
2023/08/01 12:01:25;;;;;;;7.68;1.90;;;19.60;99.90;;;;;;5050012;28;20313;-77
2023/08/01 12:03:55;;;;;;;5.47;1.50;;;19.60;99.90;;;;;;5065849;28;20063;-76
2023/08/01 12:06:23;;;;;;;4.65;1.38;;;19.70;99.90;;;;;;5052216;28;20025;-76
2023/08/01 12:08:51;;;;;;;7.50;1.80;;;19.80;99.90;;;;;;5063553;28;20044;-76
2023/08/01 12:11:25;;;;;;;12.40;2.25;;;19.80;99.90;;;;;;5063296;28;20025;-76
2023/08/01 12:14:11;;;;;;;6.60;1.50;;;19.90;99.90;;;;;;5055773;28;20024;-77
2023/08/01 12:16:41;;;;;;;5.57;1.50;;;19.90;99.90;;;;;;5083201;28;20020;-76
2023/08/01 12:19:09;;;;;;;9.30;1.67;;;20.10;99.90;;;;;;5066311;28;20055;-76
2023/08/01 12:21:35;;;;;;;5.57;1.80;;;20.30;99.90;;;;;;5066346;28;20024;-76
2023/08/01 12:24:02;;;;;;;7.07;1.65;;;20.30;99.90;;;;;;5082035;28;20083;-76
2023/08/01 12:26:28;;;;;;;7.35;1.83;;;20.20;99.90;;;;;;5083048;28;20174;-76
2023/08/01 12:28:53;;;;;;;10.57;2.15;;;20.00;99.90;;;;;;5081817;28;20028;-76
2023/08/01 12:31:21;;;;;;;13.80;2.47;;;19.90;99.90;;;;;;5082921;28;20134;-76
2023/08/01 12:33:48;;;;;;;11.82;2.72;;;19.60;99.90;;;;;;5066319;28;20035;-76
2023/08/01 12:36:16;;;;;;;8.35;2.10;;;19.50;99.90;;;;;;5082992;28;20024;-77
2023/08/01 12:38:42;;;;;;;7.35;1.80;;;19.60;99.90;;;;;;5065693;28;20021;-76
2023/08/01 12:41:08;;;;;;;9.02;1.90;;;19.80;99.90;;;;;;5082411;28;20029;-76